Laman API Video Percuma Terbaik

AVDBAPI.COM

Cari katalog, semak rekod, dan salin URL API bersih daripada papan pemuka pantas.

Telegram Join Our Telegram Community for Updates!
Today
0
Kemaskini Hari Ini
Censored
314141
Censored Videos
Total
474352
Total Videos

Senarai Video

Rekod terkini disusun mengikut masa kemas kini.

ID Nama CODE Kategori Dikemaskini API
264894 NKD-029-B NakedAngel Linker NKD-029-B Tanpa sensor 2025-08-29 03:47:20 API
264893 HEYZO-2623 Jessica Takizawa French Kiss Basah, Seks Ketat yang Nakal! HEYZO-2623 Tanpa sensor 2025-08-29 03:47:10 API
264892 050316-554 Model Gravure Berdada Besar Ditipu ~ Tubuh Menggiurkan ~ 050316-554 Tanpa sensor 2025-08-29 03:47:00 API
264890 FC2-PPV-4497790 Gadis Nude Cowgirl Hilang dan Kena Creampied 2 Kali / Mandi Erotik / Basuh Badan / Selfie Masturbasi! Debut Mummy W *Close up gila! Tempat terbaik untuk tonton dan komen FC2-PPV-4497790 Tanpa sensor 2025-08-29 03:46:40 API
264888 101720-372 Kali pertama cukur bulu kemaluan! Kelamin licin yang jadi super sensitif 101720-372 Tanpa sensor 2025-08-29 03:46:20 API
264887 H0930-KI211202 Wanita Seksi 33 Tahun Yumiko Takeshita H0930-KI211202 Tanpa sensor 2025-08-29 03:46:10 API
264886 100721-001 Buku Gambar Puki Nao Fujishima 100721-001 Tanpa sensor 2025-08-29 03:46:00 API
264885 HEYZO-2624 Hasegawa Bogel [Hasegawa Mira] Nikmat dengan urutan erotik! ~ Kecantikan bogel Hasegawa ~ HEYZO-2624 Tanpa sensor 2025-08-29 03:45:50 API
264883 050120_001 Tokimeki ~ Lelaki kacak dengan tubuh seksi dan sensasi licin yang sangat nikmat untuk dipeluk ~ 050120_001 Tanpa sensor 2025-08-29 03:45:30 API
264882 C0930-KI210610 Wanita Matang 47 Tahun Atsuko Kiyono C0930-KI210610 Tanpa sensor 2025-08-29 03:45:20 API
264881 050316-556 Pelacur Cantik - Nampak sopan pada pandangan pertama, tapi sebenarnya perempuan jalang 050316-556 Tanpa sensor 2025-08-29 03:45:10 API
264880 FC2-PPV-4494759 [Edisi Terhad 2980¥/1980¥] FC2-PPV-4494759 Tanpa sensor 2025-08-29 03:45:00 API
264879 100821-001 BOGA x BOGA ~ Yui Kisaragi memuji cara aku main di ranjang ~ Yui Kisaragi 100821-001 Tanpa sensor 2025-08-29 03:44:50 API
264878 H0930-KI211205 Gadis Cantik 23 Tahun Asumi Shimazaki H0930-KI211205 Tanpa sensor 2025-08-29 03:44:40 API
264877 031921-01 Koleksi Puki Berharga - Sila Lihat Puki Kazumi - 031921-01 Tanpa sensor 2025-08-29 03:44:30 API
264876 HEYZO-2640 Rika [Rika] Karya terbaru: Gadis tercantik Rika (20) Pancutan sperma terus ke dalam faraj tanpa kondom oleh orang kaya HEYZO-2640 Tanpa sensor 2025-08-29 03:44:20 API
264875 SDJS-158 Rin Miyazaki terima pesanan perniagaan di sex shop yang hampir muflis! Kelab masturbasi, salun kecantikan lelaki, kesihatan! SDJS-158 Mosaik 2025-08-29 03:44:10 API
264874 C0930-KI210613 Wanita Cantik 30 Tahun Makiko Oikawa C0930-KI210613 Tanpa sensor 2025-08-29 03:44:00 API
264873 SE223 Karya Pertama Amane: Saya terpukau dengan permainan kawan lama saya SE223 Tanpa sensor 2025-08-29 03:43:50 API
264871 050220_001 Tubuh Eksotik Yang Menggiurkan Bak Bom 050220_001 Tanpa sensor 2025-08-29 03:43:30 API
264870 102020-373 Tolong urut saya dalam baju cheongsam ini! 102020-373 Tanpa sensor 2025-08-29 03:43:20 API
264869 032021-01 Gadis Amatir Ketagih Seks Kinky Dengan Pakcik 032021-01 Tanpa sensor 2025-08-29 03:43:10 API
264868 H4610-ORI1779 Gadis Cantik Berusia 20 Tahun Kinose Sayami H4610-ORI1779 Tanpa sensor 2025-08-29 03:43:00 API
264867 CARIBBEANCOMPR-052016_569 Model S Tinggi 156 Pendedahan Luar Rumah Dan Seks Berterusan Creampie CARIBBEANCOMPR-052016_569 Tanpa sensor 2025-08-29 03:42:50 API
264866 100921-001 Dua anak perempuan hantu orgy dan syurga 4P bersama Shino Aoi & Aya Eikura 100921-001 Tanpa sensor 2025-08-29 03:42:40 API
264865 HEYZO-2625 Remi Fuyutsuki [Remi Fuyutsuki] Rundingan seks dengan wanita seksi menggunakan sabun mewah HEYZO-2625 Tanpa sensor 2025-08-29 03:42:30 API
264864 050320_001 Godaan Manchira 050320_001 Tanpa sensor 2025-08-29 03:42:20 API
264863 102220-374 Kamu Masih Muda Dulu ~ Cosplay Seragam Pelaut ~ 102220-374 Tanpa sensor 2025-08-29 03:42:10 API
264861 C0930-KI210612 Wanita Matang 48 Tahun Aiko Hashimoto C0930-KI210612 Tanpa sensor 2025-08-29 03:41:50 API
264860 FC2-PPV-4497503 Campuran berbahaya antara "Loli" dan "Madam"! Puan Shino yang dibenci dan Yumi-chan si miskin yang hampir mati kena 4P! Bab 2 & Yumi-chan Bab 3 [Versi Luar Negara] FC2-PPV-4497503 Tanpa sensor 2025-08-29 03:41:40 API
264859 KB1540 Team Kimura Edisi Khas: Marin kemasukan terus tanpa kondom KB1540 Tanpa sensor 2025-08-29 03:41:30 API
264858 101021-001 Kisah Puteri Buih Terbaik Vol.93 Non Suzumiya 101021-001 Tanpa sensor 2025-08-29 03:41:20 API
264857 032121-01 Amatur Tanpa Mekap - Saya Seorang Masokis, Tapi Saya Tak Mahu Buang Mekap - 032121-01 Tanpa sensor 2025-08-29 03:41:10 API
264856 H4610-KI220424 Gadis Cantik Katayama Aoi, 26 Tahun H4610-KI220424 Tanpa sensor 2025-08-29 03:41:00 API
264855 H0930-TK0047 Kusakabe Ikue Wanita Seksi 33 Tahun H0930-TK0047 Tanpa sensor 2025-08-29 03:40:50 API
264854 050420_001 Salah Terjemah! Gadis Berperisa Cermin Mata Hitam Gaya Saddle! Honda Wakana 050420_001 Tanpa sensor 2025-08-29 03:40:40 API
264853 052016-569 Model S Tinggi 156cm Eksibisi Luar Rumah dan Seks Berterusan Creampie 052016-569 Tanpa sensor 2025-08-29 03:40:30 API
264852 102420-375 Pancut dalam seluar dalam seksi semasa bersetubuh 102420-375 Tanpa sensor 2025-08-29 03:40:20 API
264851 C0930-TK0036 Naoko Tsurii Berusia 28 Tahun C0930-TK0036 Tanpa sensor 2025-08-29 03:40:10 API
264850 HEYZO-2635 Sari Nakajima [Masari Nakajima] Saya ber-cosplay sebagai wanita matang yang seksi! HEYZO-2635 Tanpa sensor 2025-08-29 03:40:00 API
264849 101221-001 Jiwa Pelakon ~ Melarikan Diri Tanpa Skrip! Lebih Terangsang Dari Biasa MAX ~ Nana Ueyama 101221-001 Tanpa sensor 2025-08-29 03:39:50 API
264848 NKD-030 Mimpi Malaikat Telanjang NKD-030-B Tanpa sensor 2025-08-29 03:39:40 API
264847 H0930-KI211207 Wanita Matang Seksi Mai Sekine Umur 45 Tahun H0930-KI211207 Tanpa sensor 2025-08-29 03:39:30 API
264846 032321-01 Alat Mainan Untuk Tubuh Berisi Dan Seksi 032321-01 Tanpa sensor 2025-08-29 03:39:20 API
264845 102720-376 Teruja dengan mainan pertama! Creampie penuh air mani dalam isteri hebat 102720-376 Tanpa sensor 2025-08-29 03:39:10 API
264844 FC2-PPV-4483626 Tiada sokongan di kawasan ini. *Faraj belum diuji dan ejakulasi ke dalam mulut FC2-PPV-4483626 Tanpa sensor 2025-08-29 03:39:00 API
264843 050520_001 Godaan cikgu wanita dada besar 050520_001 Tanpa sensor 2025-08-29 03:38:50 API
264842 C0930-KI210615 Takako Nakao, Wanita 30 Tahun Yang Menggiurkan C0930-KI210615 Tanpa sensor 2025-08-29 03:38:40 API
264841 HEYZO-2632 Akemi Kihara [Akemi Kihara] Saya mahukan rangsangan! Jadi, saya buat debut dalam dunia AV! HEYZO-2632 Tanpa sensor 2025-08-29 03:38:30 API
264840 101321-001 [VR] Gaya Seksi Pelacur Mewah Miyuki Sakuragi, Rino Sakuragi 101321-001 Tanpa sensor 2025-08-29 03:38:20 API